createdAt,value
2017-09-26T00:01:54.678Z,14.50
2017-09-26T00:04:22.130Z,14.50
2017-09-26T00:06:49.626Z,14.50
2017-09-26T00:09:17.083Z,14.50
2017-09-26T00:11:44.539Z,14.60
2017-09-26T00:14:12.008Z,14.60
2017-09-26T00:16:39.474Z,14.60
2017-09-26T00:19:07.166Z,14.60
2017-09-26T00:21:34.634Z,14.50
2017-09-26T00:24:02.104Z,14.50
2017-09-26T00:26:29.995Z,14.50
2017-09-26T00:28:57.464Z,14.50
2017-09-26T00:31:24.931Z,14.40
2017-09-26T00:33:52.719Z,14.40
2017-09-26T00:36:20.182Z,14.40
2017-09-26T00:38:47.647Z,14.50
2017-09-26T00:41:15.520Z,14.50
2017-09-26T00:43:43.371Z,14.60
2017-09-26T00:46:11.228Z,14.50
2017-09-26T00:48:38.728Z,14.50
2017-09-26T00:51:06.188Z,14.40
2017-09-26T00:53:33.641Z,14.20
2017-09-26T00:56:01.128Z,14.20
2017-09-26T00:58:28.608Z,14.30
2017-09-26T01:00:56.062Z,14.20
2017-09-26T01:03:25.975Z,14.10
2017-09-26T01:06:08.321Z,14.10
2017-09-26T01:08:35.822Z,14.00
2017-09-26T01:11:03.278Z,14.00
2017-09-26T01:13:30.739Z,14.00
2017-09-26T01:15:58.351Z,13.90
2017-09-26T01:18:25.800Z,13.90
2017-09-26T01:20:53.265Z,13.90
2017-09-26T01:23:20.848Z,13.90
2017-09-26T01:25:48.318Z,13.90
2017-09-26T01:28:15.775Z,13.90
2017-09-26T01:30:43.532Z,14.00
2017-09-26T01:33:10.987Z,14.00
2017-09-26T01:35:38.459Z,14.00
2017-09-26T01:38:06.340Z,14.00
2017-09-26T01:40:45.975Z,14.10
2017-09-26T01:43:13.831Z,14.10
2017-09-26T01:45:41.710Z,14.10
2017-09-26T01:48:09.570Z,14.10
2017-09-26T01:50:37.421Z,14.00
2017-09-26T01:53:04.895Z,14.00
2017-09-26T01:55:32.366Z,14.00
2017-09-26T01:57:59.826Z,14.00
2017-09-26T02:00:27.297Z,14.00
2017-09-26T02:02:54.750Z,14.00
2017-09-26T02:05:22.242Z,13.90
2017-09-26T02:07:49.707Z,13.80
2017-09-26T02:10:17.163Z,13.80
2017-09-26T02:12:45.062Z,13.70
2017-09-26T02:15:12.515Z,13.70
2017-09-26T02:17:39.975Z,13.70
2017-09-26T02:20:07.458Z,13.70
2017-09-26T02:22:34.919Z,13.80
2017-09-26T02:25:02.379Z,13.90
2017-09-26T02:27:29.858Z,13.90
2017-09-26T02:29:57.315Z,14.00
2017-09-26T02:32:25.191Z,14.00
2017-09-26T02:34:53.079Z,13.90
2017-09-26T02:37:20.535Z,13.90
2017-09-26T02:39:47.997Z,14.00
2017-09-26T02:42:15.532Z,13.90
2017-09-26T02:44:42.955Z,13.90
2017-09-26T02:47:10.415Z,14.00
2017-09-26T02:49:37.876Z,13.90
2017-09-26T02:52:05.339Z,14.00
2017-09-26T02:54:33.496Z,14.00
2017-09-26T02:57:00.966Z,14.00
2017-09-26T02:59:28.822Z,14.00
2017-09-26T03:01:56.685Z,14.00
2017-09-26T03:04:24.151Z,14.10
2017-09-26T03:06:52.008Z,14.10
2017-09-26T03:09:19.587Z,14.10
2017-09-26T03:11:47.450Z,14.00
2017-09-26T03:14:15.290Z,14.10
2017-09-26T03:16:43.051Z,14.10
2017-09-26T03:19:10.507Z,14.00
2017-09-26T03:21:37.967Z,14.00
2017-09-26T03:24:05.876Z,14.10
2017-09-26T03:26:33.340Z,14.00
2017-09-26T03:29:00.807Z,14.00
2017-09-26T03:31:28.269Z,14.10
2017-09-26T03:33:55.728Z,14.10
2017-09-26T03:36:23.207Z,14.10
2017-09-26T03:38:50.670Z,14.20
2017-09-26T03:41:18.125Z,14.20
2017-09-26T03:43:46.003Z,14.20
2017-09-26T03:46:13.859Z,14.20
2017-09-26T03:48:41.707Z,14.20
2017-09-26T03:51:09.191Z,14.20
2017-09-26T03:53:37.046Z,14.10
2017-09-26T03:56:04.897Z,14.10
2017-09-26T03:58:32.475Z,14.10
2017-09-26T04:00:59.943Z,14.20
2017-09-26T04:03:27.414Z,14.20
2017-09-26T04:05:54.922Z,14.20
2017-09-26T04:08:22.388Z,14.30
2017-09-26T04:10:49.849Z,14.10
2017-09-26T04:13:17.727Z,14.20
2017-09-26T04:15:45.182Z,14.20
2017-09-26T04:18:12.648Z,14.20
2017-09-26T04:20:40.141Z,14.20
2017-09-26T04:23:07.596Z,14.20
2017-09-26T04:25:35.053Z,14.20
2017-09-26T04:28:02.736Z,14.30
2017-09-26T04:30:30.187Z,14.30
2017-09-26T04:32:57.655Z,14.20
2017-09-26T04:35:25.587Z,14.30
2017-09-26T04:37:53.043Z,14.30
2017-09-26T04:40:20.499Z,14.30
2017-09-26T04:42:47.999Z,14.30
2017-09-26T04:45:15.851Z,14.30
2017-09-26T04:47:43.307Z,14.40
2017-09-26T04:50:11.209Z,14.40
2017-09-26T04:52:38.674Z,14.40
2017-09-26T04:55:06.147Z,14.40
2017-09-26T04:57:33.626Z,14.50
2017-09-26T05:00:01.088Z,14.40
2017-09-26T05:02:28.952Z,14.40
2017-09-26T05:04:56.449Z,14.40
2017-09-26T05:07:23.916Z,14.50
2017-09-26T05:09:51.754Z,14.40
2017-09-26T05:12:19.619Z,14.40
2017-09-26T05:14:47.080Z,14.40
2017-09-26T05:17:14.547Z,14.40
2017-09-26T05:19:42.079Z,14.50
2017-09-26T05:22:09.588Z,14.50
2017-09-26T05:24:37.055Z,14.50
2017-09-26T05:27:04.546Z,14.50
2017-09-26T05:29:32.404Z,14.50
2017-09-26T05:32:00.907Z,14.50
2017-09-26T05:34:28.623Z,14.50
2017-09-26T05:36:56.121Z,14.50
2017-09-26T05:39:23.570Z,14.50
2017-09-26T05:41:51.031Z,14.50
2017-09-26T05:44:18.498Z,14.50
2017-09-26T05:46:45.991Z,14.50
2017-09-26T05:49:13.718Z,14.50
2017-09-26T05:51:41.183Z,14.50
2017-09-26T05:54:08.653Z,14.50
2017-09-26T05:56:36.136Z,14.50
2017-09-26T05:59:03.602Z,14.50
2017-09-26T06:01:31.454Z,14.60
2017-09-26T06:03:59.355Z,14.60
2017-09-26T06:06:26.828Z,14.70
2017-09-26T06:08:54.318Z,14.70
2017-09-26T06:11:21.779Z,14.70
2017-09-26T06:13:49.247Z,14.70
2017-09-26T06:16:16.738Z,14.70
2017-09-26T06:18:44.196Z,14.70
2017-09-26T06:21:11.659Z,14.60
2017-09-26T06:23:39.359Z,14.60
2017-09-26T06:26:06.818Z,14.70
2017-09-26T06:28:34.274Z,14.70
2017-09-26T06:31:01.735Z,14.70
2017-09-26T06:33:29.741Z,14.80
2017-09-26T06:35:57.245Z,14.80
2017-09-26T06:38:24.715Z,14.80
2017-09-26T06:40:52.170Z,14.90
2017-09-26T06:43:19.643Z,14.80
2017-09-26T06:45:47.502Z,14.80
2017-09-26T06:48:15.359Z,14.80
2017-09-26T06:50:42.826Z,14.80
2017-09-26T06:53:10.689Z,14.80
2017-09-26T06:55:38.552Z,14.90
2017-09-26T06:58:06.445Z,14.90
2017-09-26T07:00:33.911Z,14.90
2017-09-26T07:03:01.367Z,14.90
2017-09-26T07:05:28.875Z,15.00
2017-09-26T07:07:56.737Z,15.00
2017-09-26T07:10:24.194Z,15.00
2017-09-26T07:12:51.686Z,15.00
2017-09-26T07:15:19.140Z,15.00
2017-09-26T07:17:46.600Z,15.00
2017-09-26T07:20:14.304Z,15.00
2017-09-26T07:22:41.774Z,14.90
2017-09-26T07:25:09.242Z,14.90
2017-09-26T07:27:37.387Z,15.10
2017-09-26T07:30:04.854Z,15.10
2017-09-26T07:32:32.306Z,15.20
2017-09-26T07:34:59.805Z,15.10
2017-09-26T07:37:27.274Z,15.10
2017-09-26T07:39:54.734Z,15.10
2017-09-26T07:42:22.338Z,15.10
2017-09-26T07:44:49.799Z,15.20
2017-09-26T07:47:17.646Z,15.10
2017-09-26T07:49:45.120Z,15.10
2017-09-26T07:52:12.976Z,15.30
2017-09-26T07:54:40.439Z,15.30
2017-09-26T07:57:08.583Z,15.20
2017-09-26T07:59:36.047Z,15.20
2017-09-26T08:02:03.727Z,15.20
2017-09-26T08:04:31.806Z,15.20
2017-09-26T08:06:59.947Z,15.20
2017-09-26T08:09:27.606Z,15.20
2017-09-26T08:11:55.083Z,15.10
2017-09-26T08:14:22.944Z,15.20
2017-09-26T08:16:50.802Z,15.20
2017-09-26T08:19:18.552Z,15.20
2017-09-26T08:21:46.015Z,15.30
2017-09-26T08:24:13.479Z,15.30
2017-09-26T08:26:40.968Z,15.20
2017-09-26T08:29:08.429Z,15.20
2017-09-26T08:31:35.890Z,15.30
2017-09-26T08:34:03.595Z,15.20
2017-09-26T08:36:31.050Z,15.10
2017-09-26T08:38:58.506Z,15.10
2017-09-26T08:41:25.961Z,15.10
2017-09-26T08:43:53.428Z,15.20
2017-09-26T08:46:21.295Z,15.30
2017-09-26T08:48:49.146Z,15.20
2017-09-26T08:51:16.892Z,15.30
2017-09-26T08:53:44.347Z,15.30
2017-09-26T08:56:11.811Z,15.10
2017-09-26T08:58:39.304Z,15.20
2017-09-26T09:01:07.151Z,15.20
2017-09-26T09:03:35.011Z,15.20
2017-09-26T09:06:02.887Z,15.00
2017-09-26T09:08:30.742Z,15.00
2017-09-26T09:10:58.601Z,15.00
2017-09-26T09:13:26.772Z,15.10
2017-09-26T09:15:54.219Z,15.10
2017-09-26T09:18:21.677Z,15.00
2017-09-26T09:20:49.134Z,15.10
2017-09-26T09:23:16.589Z,15.00
2017-09-26T09:25:44.345Z,15.10
2017-09-26T09:28:11.807Z,15.10
2017-09-26T09:30:39.280Z,15.10
2017-09-26T09:33:06.771Z,15.20
2017-09-26T09:35:34.328Z,15.10
2017-09-26T09:38:01.796Z,15.20
2017-09-26T09:40:29.274Z,15.30
2017-09-26T09:42:56.745Z,15.40
2017-09-26T09:45:24.611Z,15.40
2017-09-26T09:47:52.090Z,15.40
2017-09-26T09:50:19.549Z,15.40
2017-09-26T09:52:47.007Z,15.40
2017-09-26T09:55:14.491Z,15.50
2017-09-26T09:57:41.959Z,15.60
2017-09-26T10:00:09.423Z,15.60
2017-09-26T10:02:37.143Z,15.60
2017-09-26T10:05:04.612Z,15.60
2017-09-26T10:07:32.085Z,15.70
2017-09-26T10:09:59.871Z,15.80
2017-09-26T10:12:27.324Z,15.70
2017-09-26T10:14:54.790Z,15.60
2017-09-26T10:17:22.650Z,16.10
2017-09-26T10:19:50.111Z,16.10
2017-09-26T10:22:17.982Z,16.00
2017-09-26T10:24:45.847Z,16.10
2017-09-26T10:27:13.319Z,16.10
2017-09-26T10:29:40.920Z,16.30
2017-09-26T10:32:08.392Z,16.40
2017-09-26T10:34:35.856Z,16.50
2017-09-26T10:37:03.619Z,16.30
2017-09-26T10:39:31.078Z,16.20
2017-09-26T10:41:58.535Z,16.30
2017-09-26T10:44:26.012Z,16.10
2017-09-26T10:46:53.864Z,16.80
2017-09-26T10:49:21.731Z,17.30
2017-09-26T10:51:49.626Z,17.20
2017-09-26T10:54:17.086Z,17.20
2017-09-26T10:56:44.549Z,18.00
2017-09-26T10:59:12.048Z,17.90
2017-09-26T11:01:39.911Z,17.60
2017-09-26T11:04:07.370Z,17.60
2017-09-26T11:06:35.027Z,17.10
2017-09-26T11:09:02.491Z,16.90
2017-09-26T11:11:29.951Z,16.80
2017-09-26T11:13:57.849Z,17.00
2017-09-26T11:16:25.305Z,17.00
2017-09-26T11:18:52.816Z,17.10
2017-09-26T11:21:20.698Z,17.30
2017-09-26T11:23:48.555Z,17.10
2017-09-26T11:26:16.421Z,17.10
2017-09-26T11:28:44.287Z,17.20
2017-09-26T11:31:12.142Z,17.20
2017-09-26T11:33:39.999Z,17.10
2017-09-26T11:36:07.490Z,17.10
2017-09-26T11:38:34.960Z,17.50
2017-09-26T11:41:02.428Z,17.70
2017-09-26T11:43:29.898Z,17.50
2017-09-26T11:45:57.354Z,17.40
2017-09-26T11:48:24.846Z,17.70
2017-09-26T11:50:52.705Z,18.00
2017-09-26T11:53:20.562Z,17.60
2017-09-26T11:55:48.054Z,17.60
2017-09-26T11:58:15.510Z,17.50
2017-09-26T12:00:42.987Z,17.50
2017-09-26T12:03:10.486Z,17.40
2017-09-26T12:05:37.943Z,17.10
2017-09-26T12:08:05.401Z,16.90
2017-09-26T12:10:32.888Z,16.90
2017-09-26T12:13:05.945Z,16.90
2017-09-26T12:15:33.835Z,16.90
2017-09-26T12:18:01.299Z,16.90
2017-09-26T12:20:28.761Z,17.00
2017-09-26T12:22:56.270Z,17.00
2017-09-26T12:25:23.736Z,17.00
2017-09-26T12:27:51.596Z,17.10
2017-09-26T12:30:19.056Z,17.10
2017-09-26T12:32:47.212Z,17.10
2017-09-26T12:35:14.683Z,17.10
2017-09-26T12:37:42.140Z,17.20
2017-09-26T12:40:10.012Z,17.50
2017-09-26T12:42:37.862Z,17.70
2017-09-26T12:45:05.322Z,17.70
2017-09-26T12:47:33.163Z,17.90
2017-09-26T12:50:00.630Z,17.90
2017-09-26T12:52:28.098Z,18.20
2017-09-26T12:54:56.087Z,18.60
2017-09-26T12:57:23.548Z,18.60
2017-09-26T12:59:51.014Z,18.80
2017-09-26T13:02:18.505Z,19.00
2017-09-26T13:04:45.971Z,23.10
2017-09-26T13:07:13.426Z,23.90
2017-09-26T13:09:41.295Z,22.50
2017-09-26T13:12:08.757Z,20.50
2017-09-26T13:14:36.211Z,20.30
2017-09-26T13:17:03.678Z,23.40
2017-09-26T13:19:31.542Z,22.30
2017-09-26T13:21:59.506Z,21.50
2017-09-26T13:24:27.374Z,21.80
2017-09-26T13:26:55.235Z,21.50
2017-09-26T13:29:23.286Z,20.50
2017-09-26T13:31:50.745Z,20.50
2017-09-26T13:34:18.206Z,20.90
2017-09-26T13:36:46.075Z,19.80
2017-09-26T13:39:13.946Z,19.10
2017-09-26T13:41:41.980Z,18.70
2017-09-26T13:44:09.435Z,18.70
2017-09-26T13:46:36.898Z,18.50
2017-09-26T13:49:04.667Z,18.30
2017-09-26T13:51:32.131Z,18.10
2017-09-26T13:53:59.995Z,18.20
2017-09-26T13:56:27.484Z,18.20
2017-09-26T13:58:54.934Z,18.00
2017-09-26T14:01:22.439Z,18.00
2017-09-26T14:03:49.908Z,18.00
2017-09-26T14:06:17.367Z,17.90
2017-09-26T14:08:44.835Z,17.90
2017-09-26T14:11:12.720Z,18.00
2017-09-26T14:13:40.572Z,18.20
2017-09-26T14:16:08.432Z,18.40
2017-09-26T14:18:36.317Z,18.70
2017-09-26T14:21:04.163Z,19.60
2017-09-26T14:23:32.015Z,19.50
2017-09-26T14:25:59.766Z,19.50
2017-09-26T14:28:27.223Z,19.30
2017-09-26T14:30:54.691Z,20.70
2017-09-26T14:33:22.398Z,22.60
2017-09-26T14:35:49.878Z,23.00
2017-09-26T14:38:17.343Z,20.50
2017-09-26T14:40:45.118Z,19.40
2017-09-26T14:43:12.584Z,19.00
2017-09-26T14:45:40.043Z,18.70
2017-09-26T14:48:07.914Z,18.50
2017-09-26T14:50:35.762Z,18.50
2017-09-26T14:53:03.614Z,18.40
2017-09-26T14:55:31.090Z,18.40
2017-09-26T14:57:58.944Z,18.60
2017-09-26T15:00:26.403Z,18.60
2017-09-26T15:02:54.155Z,18.50
2017-09-26T15:05:21.614Z,18.40
2017-09-26T15:07:49.095Z,18.20
2017-09-26T15:10:16.615Z,18.10
2017-09-26T15:12:44.084Z,18.10
2017-09-26T15:15:11.548Z,18.20
2017-09-26T15:17:39.295Z,18.60
2017-09-26T15:20:06.757Z,19.00
2017-09-26T15:22:34.217Z,19.10
2017-09-26T15:25:02.274Z,19.40
2017-09-26T15:27:29.736Z,19.40
2017-09-26T15:29:57.606Z,18.70
2017-09-26T15:32:25.106Z,18.70
2017-09-26T15:34:52.566Z,18.70
2017-09-26T15:37:20.032Z,18.60
2017-09-26T15:39:47.662Z,18.80
2017-09-26T15:42:15.131Z,18.40
2017-09-26T15:44:42.619Z,18.20
2017-09-26T15:47:10.083Z,18.10
2017-09-26T15:49:37.551Z,17.90
2017-09-26T15:52:05.332Z,17.80
2017-09-26T15:54:33.182Z,17.60
2017-09-26T15:57:01.039Z,17.50
2017-09-26T15:59:28.519Z,17.50
2017-09-26T16:01:56.373Z,17.40
2017-09-26T16:04:24.223Z,17.20
2017-09-26T16:06:51.692Z,17.30
2017-09-26T16:09:19.560Z,17.20
2017-09-26T16:11:47.810Z,17.20
2017-09-26T16:14:15.272Z,17.20
2017-09-26T16:16:42.748Z,17.20
2017-09-26T16:19:10.643Z,17.10
2017-09-26T16:21:38.103Z,17.10
2017-09-26T16:24:05.557Z,17.10
2017-09-26T16:26:33.039Z,17.10
2017-09-26T16:29:00.511Z,17.10
2017-09-26T16:31:28.197Z,16.90
2017-09-26T16:33:55.667Z,16.90
2017-09-26T16:36:23.129Z,16.80
2017-09-26T16:38:51.504Z,16.80
2017-09-26T16:41:18.962Z,16.80
2017-09-26T16:43:46.420Z,16.80
2017-09-26T16:46:13.899Z,16.80
2017-09-26T16:48:41.379Z,16.90
2017-09-26T16:51:08.843Z,16.80
2017-09-26T16:53:36.596Z,16.80
2017-09-26T16:56:04.055Z,16.70
2017-09-26T16:58:31.511Z,16.70
2017-09-26T17:00:59.431Z,16.70
2017-09-26T17:03:26.887Z,16.70
2017-09-26T17:05:54.363Z,16.70
2017-09-26T17:08:21.854Z,16.70
2017-09-26T17:10:49.707Z,16.60
2017-09-26T17:13:17.170Z,16.60
2017-09-26T17:15:45.430Z,16.60
2017-09-26T17:18:12.898Z,16.50
2017-09-26T17:20:40.367Z,16.50
2017-09-26T17:23:08.253Z,16.40
2017-09-26T17:25:35.719Z,16.40
2017-09-26T17:28:03.786Z,16.40
2017-09-26T17:30:31.271Z,16.30
2017-09-26T17:32:58.747Z,16.20
2017-09-26T17:35:26.209Z,16.20
2017-09-26T17:37:53.663Z,16.10
2017-09-26T17:40:21.566Z,16.10
2017-09-26T17:42:49.016Z,16.10
2017-09-26T17:45:16.502Z,16.10
2017-09-26T17:47:43.997Z,16.00
2017-09-26T17:50:11.514Z,16.00
2017-09-26T17:52:39.007Z,15.90
2017-09-26T17:55:17.347Z,15.90
2017-09-26T17:57:45.167Z,15.90
2017-09-26T18:00:12.640Z,15.80
2017-09-26T18:02:40.137Z,15.80
2017-09-26T18:05:07.705Z,15.80
2017-09-26T18:07:35.158Z,15.70
2017-09-26T18:10:02.644Z,15.80
2017-09-26T18:12:30.175Z,15.70
2017-09-26T18:14:57.633Z,15.70
2017-09-26T18:17:25.191Z,15.70
2017-09-26T18:19:52.742Z,15.60
2017-09-26T18:22:20.265Z,15.60
2017-09-26T18:24:48.188Z,15.60
2017-09-26T18:27:15.724Z,15.60
2017-09-26T18:29:43.336Z,15.60
2017-09-26T18:32:10.880Z,15.50
2017-09-26T18:34:38.804Z,15.40
2017-09-26T18:37:06.500Z,15.50
2017-09-26T18:39:33.955Z,15.40
2017-09-26T18:42:01.490Z,15.40
2017-09-26T18:44:29.278Z,15.40
2017-09-26T18:46:56.784Z,15.30
2017-09-26T18:49:24.325Z,15.30
2017-09-26T18:51:51.921Z,15.40
2017-09-26T18:54:19.440Z,15.30
2017-09-26T18:56:47.119Z,15.30
2017-09-26T18:59:15.231Z,15.30
2017-09-26T19:01:42.708Z,15.30
2017-09-26T19:04:10.615Z,15.20
2017-09-26T19:06:38.270Z,15.20
2017-09-26T19:09:05.976Z,15.20
2017-09-26T19:11:34.205Z,15.20
2017-09-26T19:14:02.069Z,15.20
2017-09-26T19:16:29.649Z,15.20
2017-09-26T19:18:57.330Z,15.10
2017-09-26T19:21:24.855Z,15.10
2017-09-26T19:23:52.937Z,15.10
2017-09-26T19:26:20.501Z,15.10
2017-09-26T19:28:48.569Z,15.10
2017-09-26T19:31:17.122Z,15.10
2017-09-26T19:33:45.183Z,15.10
2017-09-26T19:36:12.873Z,15.10
2017-09-26T19:38:40.921Z,15.10
2017-09-26T19:41:08.835Z,15.10
2017-09-26T19:43:36.843Z,15.10
2017-09-26T19:46:04.467Z,15.10
2017-09-26T19:48:32.470Z,15.00
2017-09-26T19:51:00.008Z,15.00
2017-09-26T19:53:29.032Z,15.00
2017-09-26T19:55:56.619Z,15.00
2017-09-26T19:58:24.217Z,14.90
2017-09-26T20:00:52.116Z,14.90
2017-09-26T20:03:19.661Z,14.90
2017-09-26T20:05:47.216Z,14.80
2017-09-26T20:08:15.126Z,14.80
2017-09-26T20:10:42.626Z,14.70
2017-09-26T20:13:10.110Z,14.80
2017-09-26T20:15:37.895Z,14.70
2017-09-26T20:18:05.394Z,14.70
2017-09-26T20:20:33.554Z,14.60
2017-09-26T20:23:01.443Z,14.50
2017-09-26T20:25:28.898Z,14.50
2017-09-26T20:27:56.367Z,14.50
2017-09-26T20:30:23.843Z,14.40
2017-09-26T20:32:51.315Z,14.40
2017-09-26T20:35:18.766Z,14.40
2017-09-26T20:37:46.231Z,14.30
2017-09-26T20:40:13.726Z,14.30
2017-09-26T20:42:41.589Z,14.20
2017-09-26T20:45:09.948Z,14.20
2017-09-26T20:47:38.010Z,14.10
2017-09-26T20:50:05.480Z,14.10
2017-09-26T20:52:33.345Z,14.10
2017-09-26T20:55:01.211Z,14.00
2017-09-26T20:57:29.072Z,14.10
2017-09-26T20:59:56.933Z,14.00
2017-09-26T21:02:24.808Z,14.00
2017-09-26T21:04:52.662Z,14.00
2017-09-26T21:07:20.818Z,13.90
2017-09-26T21:09:48.275Z,13.90
2017-09-26T21:12:15.743Z,14.00
2017-09-26T21:14:43.913Z,13.90
2017-09-26T21:17:11.364Z,13.90
2017-09-26T21:19:39.222Z,13.90
2017-09-26T21:22:06.712Z,13.90
2017-09-26T21:24:34.563Z,13.80
2017-09-26T21:27:02.414Z,13.80
2017-09-26T21:29:29.909Z,13.80
2017-09-26T21:31:57.382Z,13.80
2017-09-26T21:34:24.857Z,13.80
2017-09-26T21:36:52.342Z,13.70
2017-09-26T21:39:20.260Z,13.70
2017-09-26T21:41:47.706Z,13.70
2017-09-26T21:44:15.171Z,13.60
2017-09-26T21:46:42.657Z,13.60
2017-09-26T21:49:10.127Z,13.60
2017-09-26T21:51:37.586Z,13.60
2017-09-26T21:54:05.718Z,13.50
2017-09-26T21:56:33.178Z,13.50
2017-09-26T21:59:00.635Z,13.50
2017-09-26T22:01:28.221Z,13.40
2017-09-26T22:03:55.679Z,13.40
2017-09-26T22:06:23.540Z,13.30
2017-09-26T22:08:51.039Z,13.30
2017-09-26T22:11:18.499Z,13.30
2017-09-26T22:13:45.959Z,13.30
2017-09-26T22:16:13.455Z,13.30
2017-09-26T22:18:40.907Z,13.30
2017-09-26T22:21:08.371Z,13.40
2017-09-26T22:23:36.019Z,13.40
2017-09-26T22:26:03.618Z,13.30
2017-09-26T22:28:31.075Z,13.30
2017-09-26T22:30:58.553Z,13.30
2017-09-26T22:33:26.020Z,13.30
2017-09-26T22:35:53.475Z,13.40
2017-09-26T22:38:20.972Z,13.30
2017-09-26T22:40:48.423Z,13.20
2017-09-26T22:43:15.882Z,13.20
2017-09-26T22:45:43.939Z,13.20
2017-09-26T22:48:11.414Z,13.30
2017-09-26T22:50:39.275Z,13.30
2017-09-26T22:53:07.161Z,13.20
2017-09-26T22:55:34.616Z,13.20
2017-09-26T22:58:02.081Z,13.20
2017-09-26T23:00:29.576Z,13.20
2017-09-26T23:02:57.042Z,13.20
2017-09-26T23:05:24.509Z,13.20
2017-09-26T23:07:52.562Z,13.40
2017-09-26T23:10:20.036Z,13.40
2017-09-26T23:12:47.499Z,13.30
2017-09-26T23:15:15.463Z,13.50
2017-09-26T23:17:43.320Z,13.50
2017-09-26T23:20:11.183Z,13.40
2017-09-26T23:22:38.651Z,13.50
2017-09-26T23:25:06.501Z,13.40
2017-09-26T23:27:34.561Z,13.40
2017-09-26T23:30:02.027Z,13.50
2017-09-26T23:32:29.484Z,13.40
2017-09-26T23:34:56.963Z,13.40
2017-09-26T23:37:24.424Z,13.50
2017-09-26T23:39:51.888Z,13.50
2017-09-26T23:42:19.474Z,13.50
2017-09-26T23:44:46.947Z,13.50
2017-09-26T23:47:14.407Z,13.50
2017-09-26T23:49:41.894Z,13.40
2017-09-26T23:52:09.748Z,13.50
2017-09-26T23:54:37.604Z,13.50
2017-09-26T23:57:05.496Z,13.50
2017-09-26T23:59:32.950Z,13.50
